Time,TemperatureF,DewpointF,PressureIn,WindDirection,WindDirectionDegrees,WindSpeedMPH,WindSpeedGustMPH,Humidity,HourlyPrecipIn,Conditions,Clouds,dailyrainin,SoftwareType,DateUTC
2013-01-31 00:09:00,12.8,9.7,29.60,WSW,253,0.0,0.0,87,0.00,,,0.00,Wunderground v.1.15,2013-01-31 06:09:00,
2013-01-31 00:14:00,12.7,9.6,29.61,WSW,252,0.0,0.0,87,0.00,,,0.00,Wunderground v.1.15,2013-01-31 06:14:00,
2013-01-31 00:24:00,12.5,9.4,29.61,WSW,252,1.0,1.0,87,0.00,,,0.00,Wunderground v.1.15,2013-01-31 06:24:00,
2013-01-31 00:29:00,12.4,9.3,29.61,WSW,253,1.0,1.0,87,0.00,,,0.00,Wunderground v.1.15,2013-01-31 06:29:00,
2013-01-31 00:34:00,12.2,9.1,29.61,WSW,252,1.0,1.0,87,0.00,,,0.00,Wunderground v.1.15,2013-01-31 06:34:00,
2013-01-31 00:44:00,11.9,8.8,29.62,WSW,253,1.0,2.0,87,0.00,,,0.00,Wunderground v.1.15,2013-01-31 06:44:00,
2013-01-31 00:49:00,11.8,8.7,29.62,WSW,252,1.0,1.0,87,0.00,,,0.00,Wunderground v.1.15,2013-01-31 06:49:00,
2013-01-31 00:54:00,11.7,8.6,29.62,WSW,253,1.0,1.0,87,0.00,,,0.00,Wunderground v.1.15,2013-01-31 06:54:00,
2013-01-31 00:59:00,11.7,8.6,29.62,WSW,252,0.0,0.0,87,0.00,,,0.00,Wunderground v.1.15,2013-01-31 06:59:00,
2013-01-31 01:04:00,11.6,8.5,29.63,WSW,252,0.0,0.0,87,0.00,,,0.00,Wunderground v.1.15,2013-01-31 07:04:00,
2013-01-31 01:09:00,11.6,8.5,29.63,WSW,252,0.0,1.0,87,0.00,,,0.00,Wunderground v.1.15,2013-01-31 07:09:00,
2013-01-31 01:14:00,11.4,8.0,29.63,WSW,253,1.0,2.0,86,0.00,,,0.00,Wunderground v.1.15,2013-01-31 07:14:00,
2013-01-31 01:24:00,11.4,8.0,29.63,WSW,253,1.0,2.0,86,0.00,,,0.00,Wunderground v.1.15,2013-01-31 07:24:00,
2013-01-31 01:34:00,11.2,7.8,29.63,WSW,252,1.0,1.0,86,0.00,,,0.00,Wunderground v.1.15,2013-01-31 07:34:00,
2013-01-31 01:39:00,11.2,7.8,29.64,WSW,252,0.0,0.0,86,0.00,,,0.00,Wunderground v.1.15,2013-01-31 07:39:00,
2013-01-31 01:44:00,11.1,7.7,29.64,WSW,253,0.0,0.0,86,0.00,,,0.00,Wunderground v.1.15,2013-01-31 07:44:00,
2013-01-31 01:49:00,11.0,7.6,29.65,WSW,252,0.0,1.0,86,0.00,,,0.00,Wunderground v.1.15,2013-01-31 07:49:00,
2013-01-31 01:54:00,10.9,7.3,29.64,WSW,253,0.0,1.0,85,0.00,,,0.00,Wunderground v.1.15,2013-01-31 07:54:00,
2013-01-31 01:59:00,10.9,7.3,29.65,WSW,252,1.0,1.0,85,0.00,,,0.00,Wunderground v.1.15,2013-01-31 07:59:00,
2013-01-31 02:04:00,10.8,7.2,29.65,WSW,253,0.0,1.0,85,0.00,,,0.00,Wunderground v.1.15,2013-01-31 08:04:00,
2013-01-31 02:14:00,10.7,7.1,29.66,WSW,252,1.0,2.0,85,0.00,,,0.00,Wunderground v.1.15,2013-01-31 08:14:00,
2013-01-31 02:19:00,10.6,6.7,29.66,WSW,252,0.0,0.0,84,0.00,,,0.00,Wunderground v.1.15,2013-01-31 08:19:00,
2013-01-31 02:24:00,10.5,6.6,29.66,WSW,252,1.0,2.0,84,0.00,,,0.00,Wunderground v.1.15,2013-01-31 08:24:00,
2013-01-31 02:33:00,10.4,6.5,29.66,WSW,252,1.0,1.0,84,0.00,,,0.00,Wunderground v.1.15,2013-01-31 08:33:00,
2013-01-31 02:38:00,10.3,6.4,29.66,WSW,252,0.0,0.0,84,0.00,,,0.00,Wunderground v.1.15,2013-01-31 08:38:00,
2013-01-31 02:44:00,10.3,6.4,29.66,WSW,252,0.0,1.0,84,0.00,,,0.00,Wunderground v.1.15,2013-01-31 08:44:00,
2013-01-31 02:49:00,10.2,6.3,29.66,WSW,252,0.0,1.0,84,0.00,,,0.00,Wunderground v.1.15,2013-01-31 08:49:00,
2013-01-31 02:54:00,10.1,6.0,29.66,WSW,252,0.0,1.0,83,0.00,,,0.00,Wunderground v.1.15,2013-01-31 08:54:00,
2013-01-31 02:59:00,10.1,6.0,29.66,WSW,252,1.0,2.0,83,0.00,,,0.00,Wunderground v.1.15,2013-01-31 08:59:00,
2013-01-31 03:04:00,10.0,5.9,29.66,WSW,252,1.0,2.0,83,0.00,,,0.00,Wunderground v.1.15,2013-01-31 09:04:00,
2013-01-31 03:09:00,10.0,5.9,29.67,WSW,252,1.0,1.0,83,0.00,,,0.00,Wunderground v.1.15,2013-01-31 09:09:00,
2013-01-31 03:14:00,9.9,5.8,29.67,WSW,253,0.0,1.0,83,0.00,,,0.00,Wunderground v.1.15,2013-01-31 09:14:00,
2013-01-31 03:23:00,9.9,6.0,29.67,WSW,252,1.0,2.0,84,0.00,,,0.00,Wunderground v.1.15,2013-01-31 09:23:00,
2013-01-31 03:28:00,9.9,6.0,29.67,WSW,252,0.0,1.0,84,0.00,,,0.00,Wunderground v.1.15,2013-01-31 09:28:00,
2013-01-31 03:38:00,9.7,5.6,29.68,WSW,252,1.0,2.0,83,0.00,,,0.00,Wunderground v.1.15,2013-01-31 09:38:00,
2013-01-31 03:48:00,9.5,5.1,29.68,WSW,252,1.0,1.0,82,0.00,,,0.00,Wunderground v.1.15,2013-01-31 09:48:00,
2013-01-31 03:53:00,9.4,5.0,29.68,WSW,252,0.0,1.0,82,0.00,,,0.00,Wunderground v.1.15,2013-01-31 09:53:00,
2013-01-31 03:58:00,9.3,4.9,29.68,WSW,252,0.0,0.0,82,0.00,,,0.00,Wunderground v.1.15,2013-01-31 09:58:00,
2013-01-31 04:03:00,9.2,4.8,29.68,WSW,252,0.0,0.0,82,0.00,,,0.00,Wunderground v.1.15,2013-01-31 10:03:00,
2013-01-31 04:08:00,9.2,4.8,29.69,WSW,252,0.0,0.0,82,0.00,,,0.00,Wunderground v.1.15,2013-01-31 10:08:00,
2013-01-31 04:13:00,9.1,4.7,29.69,WSW,252,0.0,2.0,82,0.00,,,0.00,Wunderground v.1.15,2013-01-31 10:13:00,
2013-01-31 04:18:00,9.0,4.6,29.69,WSW,252,0.0,0.0,82,0.00,,,0.00,Wunderground v.1.15,2013-01-31 10:18:00,
2013-01-31 04:28:00,8.9,4.5,29.69,WSW,252,0.0,0.0,82,0.00,,,0.00,Wunderground v.1.15,2013-01-31 10:28:00,
2013-01-31 04:33:00,8.8,4.4,29.69,WSW,252,0.0,0.0,82,0.00,,,0.00,Wunderground v.1.15,2013-01-31 10:33:00,
2013-01-31 04:38:00,8.8,4.4,29.69,WSW,252,0.0,0.0,82,0.00,,,0.00,Wunderground v.1.15,2013-01-31 10:38:00,
2013-01-31 04:43:00,8.7,4.3,29.69,WSW,252,0.0,1.0,82,0.00,,,0.00,Wunderground v.1.15,2013-01-31 10:43:00,
2013-01-31 04:48:00,8.7,4.3,29.70,WSW,252,0.0,1.0,82,0.00,,,0.00,Wunderground v.1.15,2013-01-31 10:48:00,
2013-01-31 04:54:00,8.7,4.1,29.70,WSW,252,0.0,1.0,81,0.00,,,0.00,Wunderground v.1.15,2013-01-31 10:54:00,
2013-01-31 05:04:00,8.6,4.2,29.69,WSW,252,0.0,0.0,82,0.00,,,0.00,Wunderground v.1.15,2013-01-31 11:04:00,
2013-01-31 05:09:00,8.6,4.2,29.70,WSW,252,0.0,0.0,82,0.00,,,0.00,Wunderground v.1.15,2013-01-31 11:09:00,
2013-01-31 05:14:00,8.5,4.1,29.70,WSW,252,0.0,0.0,82,0.00,,,0.00,Wunderground v.1.15,2013-01-31 11:14:00,
2013-01-31 05:19:00,8.5,4.1,29.70,WSW,252,0.0,0.0,82,0.00,,,0.00,Wunderground v.1.15,2013-01-31 11:19:00,
2013-01-31 05:24:00,8.5,4.1,29.70,WSW,252,0.0,0.0,82,0.00,,,0.00,Wunderground v.1.15,2013-01-31 11:24:00,
2013-01-31 05:29:00,8.5,4.1,29.70,WSW,252,0.0,0.0,82,0.00,,,0.00,Wunderground v.1.15,2013-01-31 11:29:00,
2013-01-31 05:34:00,8.4,4.3,29.70,WSW,252,0.0,0.0,83,0.00,,,0.00,Wunderground v.1.15,2013-01-31 11:34:00,
2013-01-31 05:39:00,8.4,4.3,29.71,WSW,252,0.0,0.0,83,0.00,,,0.00,Wunderground v.1.15,2013-01-31 11:39:00,
2013-01-31 05:49:00,8.3,4.2,29.71,WSW,252,0.0,0.0,83,0.00,,,0.00,Wunderground v.1.15,2013-01-31 11:49:00,
2013-01-31 05:59:00,8.2,4.1,29.71,WSW,252,0.0,0.0,83,0.00,,,0.00,Wunderground v.1.15,2013-01-31 11:59:00,
2013-01-31 06:09:00,8.2,4.1,29.72,WSW,252,0.0,0.0,83,0.00,,,0.00,Wunderground v.1.15,2013-01-31 12:09:00,
2013-01-31 06:14:00,8.1,4.0,29.72,WSW,252,0.0,0.0,83,0.00,,,0.00,Wunderground v.1.15,2013-01-31 12:14:00,
2013-01-31 06:19:00,8.0,3.9,29.72,WSW,252,0.0,0.0,83,0.00,,,0.00,Wunderground v.1.15,2013-01-31 12:19:00,
2013-01-31 06:24:00,7.9,3.8,29.73,WSW,252,0.0,3.0,83,0.00,,,0.00,Wunderground v.1.15,2013-01-31 12:24:00,
2013-01-31 06:34:00,7.7,3.6,29.73,WSW,252,1.0,1.0,83,0.00,,,0.00,Wunderground v.1.15,2013-01-31 12:34:00,
2013-01-31 06:39:00,7.6,3.5,29.73,WSW,252,0.0,0.0,83,0.00,,,0.00,Wunderground v.1.15,2013-01-31 12:39:00,
2013-01-31 06:49:00,7.4,3.3,29.74,WSW,252,0.0,1.0,83,0.00,,,0.00,Wunderground v.1.15,2013-01-31 12:49:00,
2013-01-31 06:54:00,7.3,3.2,29.74,WSW,252,0.0,1.0,83,0.00,,,0.00,Wunderground v.1.15,2013-01-31 12:54:00,
2013-01-31 07:04:00,7.3,3.2,29.74,WSW,252,1.0,1.0,83,0.00,,,0.00,Wunderground v.1.15,2013-01-31 13:04:00,
2013-01-31 07:09:00,7.4,3.3,29.74,WSW,252,1.0,2.0,83,0.00,,,0.00,Wunderground v.1.15,2013-01-31 13:09:00,
2013-01-31 07:14:00,7.4,3.1,29.74,WSW,252,1.0,2.0,82,0.00,,,0.00,Wunderground v.1.15,2013-01-31 13:14:00,
2013-01-31 07:24:00,7.5,3.2,29.76,WSW,252,0.0,1.0,82,0.00,,,0.00,Wunderground v.1.15,2013-01-31 13:24:00,
2013-01-31 07:29:00,7.5,3.2,29.76,WSW,252,1.0,1.0,82,0.00,,,0.00,Wunderground v.1.15,2013-01-31 13:29:00,
2013-01-31 07:34:00,7.5,3.2,29.76,WSW,252,1.0,1.0,82,0.00,,,0.00,Wunderground v.1.15,2013-01-31 13:34:00,
2013-01-31 07:39:00,7.5,3.2,29.77,WSW,252,1.0,2.0,82,0.00,,,0.00,Wunderground v.1.15,2013-01-31 13:39:00,
2013-01-31 07:48:00,7.5,3.2,29.78,WSW,252,1.0,3.0,82,0.00,,,0.00,Wunderground v.1.15,2013-01-31 13:48:00,
2013-01-31 07:53:00,7.5,3.2,29.78,WSW,252,1.0,3.0,82,0.00,,,0.00,Wunderground v.1.15,2013-01-31 13:53:00,
2013-01-31 07:58:00,7.5,3.2,29.78,WSW,252,1.0,1.0,82,0.00,,,0.00,Wunderground v.1.15,2013-01-31 13:58:00,
2013-01-31 08:08:00,7.6,3.3,29.79,WSW,252,1.0,1.0,82,0.00,,,0.00,Wunderground v.1.15,2013-01-31 14:08:00,
2013-01-31 08:13:00,7.6,3.5,29.79,WSW,252,0.0,1.0,83,0.00,,,0.00,Wunderground v.1.15,2013-01-31 14:13:00,
2013-01-31 08:18:00,7.7,3.6,29.79,WSW,252,0.0,0.0,83,0.00,,,0.00,Wunderground v.1.15,2013-01-31 14:18:00,
2013-01-31 08:24:00,7.7,3.4,29.79,WSW,252,1.0,1.0,82,0.00,,,0.00,Wunderground v.1.15,2013-01-31 14:24:00,
2013-01-31 08:33:00,7.6,3.3,29.80,WSW,252,1.0,1.0,82,0.00,,,0.00,Wunderground v.1.15,2013-01-31 14:33:00,
2013-01-31 08:38:00,7.6,3.3,29.80,WSW,252,1.0,1.0,82,0.00,,,0.00,Wunderground v.1.15,2013-01-31 14:38:00,
2013-01-31 08:43:00,7.6,3.3,29.81,WSW,252,1.0,1.0,82,0.00,,,0.00,Wunderground v.1.15,2013-01-31 14:43:00,
2013-01-31 08:53:00,7.6,3.3,29.81,WSW,252,1.0,1.0,82,0.00,,,0.00,Wunderground v.1.15,2013-01-31 14:53:00,
2013-01-31 08:58:00,7.7,3.4,29.81,WSW,252,1.0,1.0,82,0.00,,,0.00,Wunderground v.1.15,2013-01-31 14:58:00,
2013-01-31 09:03:00,7.9,3.5,29.82,WSW,252,1.0,1.0,82,0.00,,,0.00,Wunderground v.1.15,2013-01-31 15:03:00,
2013-01-31 09:08:00,8.1,3.7,29.81,WSW,252,1.0,2.0,82,0.00,,,0.00,Wunderground v.1.15,2013-01-31 15:08:00,
2013-01-31 09:18:00,9.1,4.5,29.82,WSW,252,1.0,2.0,81,0.00,,,0.00,Wunderground v.1.15,2013-01-31 15:18:00,
2013-01-31 09:23:00,9.5,4.8,29.82,WSW,252,1.0,2.0,81,0.00,,,0.00,Wunderground v.1.15,2013-01-31 15:23:00,
2013-01-31 09:28:00,9.9,5.0,29.82,WSW,252,1.0,3.0,80,0.00,,,0.00,Wunderground v.1.15,2013-01-31 15:28:00,
2013-01-31 09:38:00,10.3,5.1,29.83,WSW,252,2.0,2.0,79,0.00,,,0.00,Wunderground v.1.15,2013-01-31 15:38:00,
2013-01-31 09:48:00,10.8,5.3,29.83,WSW,252,1.0,2.0,78,0.00,,,0.00,Wunderground v.1.15,2013-01-31 15:48:00,
2013-01-31 09:54:00,11.0,5.5,29.84,WSW,252,1.0,2.0,78,0.00,,,0.00,Wunderground v.1.15,2013-01-31 15:54:00,
2013-01-31 09:59:00,10.9,5.4,29.84,WSW,252,1.0,2.0,78,0.00,,,0.00,Wunderground v.1.15,2013-01-31 15:59:00,
2013-01-31 10:04:00,10.8,5.0,29.84,WSW,252,2.0,2.0,77,0.00,,,0.00,Wunderground v.1.15,2013-01-31 16:04:00,
2013-01-31 10:14:00,11.2,5.4,29.84,WSW,252,2.0,2.0,77,0.00,,,0.00,Wunderground v.1.15,2013-01-31 16:14:00,
2013-01-31 10:24:00,11.4,5.3,29.84,WSW,252,1.0,2.0,76,0.00,,,0.00,Wunderground v.1.15,2013-01-31 16:24:00,
2013-01-31 10:34:00,11.6,5.8,29.85,WSW,252,1.0,3.0,77,0.00,,,0.00,Wunderground v.1.15,2013-01-31 16:34:00,
2013-01-31 10:39:00,11.9,5.8,29.85,WSW,252,1.0,1.0,76,0.00,,,0.00,Wunderground v.1.15,2013-01-31 16:39:00,
2013-01-31 10:44:00,11.8,5.7,29.85,WSW,252,2.0,2.0,76,0.00,,,0.00,Wunderground v.1.15,2013-01-31 16:44:00,
2013-01-31 10:49:00,11.9,5.8,29.85,WSW,252,2.0,2.0,76,0.00,,,0.00,Wunderground v.1.15,2013-01-31 16:49:00,
2013-01-31 10:54:00,12.0,5.9,29.86,WSW,252,1.0,2.0,76,0.00,,,0.00,Wunderground v.1.15,2013-01-31 16:54:00,
2013-01-31 11:04:00,11.5,5.1,29.86,WSW,252,2.0,4.0,75,0.00,,,0.00,Wunderground v.1.15,2013-01-31 17:04:00,
2013-01-31 11:09:00,11.1,4.7,29.86,WSW,252,3.0,3.0,75,0.00,,,0.00,Wunderground v.1.15,2013-01-31 17:09:00,
2013-01-31 11:19:00,10.8,4.4,29.86,WSW,252,2.0,2.0,75,0.00,,,0.00,Wunderground v.1.15,2013-01-31 17:19:00,
2013-01-31 11:24:00,11.3,4.9,29.86,WSW,252,2.0,2.0,75,0.00,,,0.00,Wunderground v.1.15,2013-01-31 17:24:00,
2013-01-31 11:34:00,11.4,4.7,29.86,WSW,252,2.0,2.0,74,0.00,,,0.00,Wunderground v.1.15,2013-01-31 17:34:00,
2013-01-31 11:39:00,11.4,4.4,29.86,WSW,252,2.0,2.0,73,0.00,,,0.00,Wunderground v.1.15,2013-01-31 17:39:00,
2013-01-31 11:49:00,11.2,4.5,29.86,WSW,252,2.0,2.0,74,0.00,,,0.00,Wunderground v.1.15,2013-01-31 17:49:00,
2013-01-31 11:54:00,10.8,4.1,29.87,WSW,252,2.0,2.0,74,0.00,,,0.00,Wunderground v.1.15,2013-01-31 17:54:00,
2013-01-31 11:59:00,10.4,4.0,29.87,WSW,252,2.0,3.0,75,0.00,,,0.00,Wunderground v.1.15,2013-01-31 17:59:00,
2013-01-31 12:04:00,10.2,3.8,29.87,WSW,252,2.0,3.0,75,0.00,,,0.00,Wunderground v.1.15,2013-01-31 18:04:00,
2013-01-31 12:09:00,10.4,4.0,29.87,WSW,252,2.0,2.0,75,0.00,,,0.00,Wunderground v.1.15,2013-01-31 18:09:00,
2013-01-31 12:14:00,10.7,4.3,29.87,WSW,252,2.0,3.0,75,0.00,,,0.00,Wunderground v.1.15,2013-01-31 18:14:00,
2013-01-31 12:24:00,11.1,4.1,29.88,WSW,252,3.0,5.0,73,0.00,,,0.00,Wunderground v.1.15,2013-01-31 18:24:00,
2013-01-31 12:34:00,11.7,5.0,29.87,WSW,252,3.0,3.0,74,0.00,,,0.00,Wunderground v.1.15,2013-01-31 18:34:00,
2013-01-31 12:39:00,12.1,5.4,29.88,WSW,252,2.0,2.0,74,0.00,,,0.00,Wunderground v.1.15,2013-01-31 18:39:00,
2013-01-31 12:43:00,12.5,5.8,29.88,WSW,252,2.0,4.0,74,0.00,,,0.00,Wunderground v.1.15,2013-01-31 18:43:00,
2013-01-31 12:48:00,12.2,5.2,29.88,WSW,252,2.0,2.0,73,0.00,,,0.00,Wunderground v.1.15,2013-01-31 18:48:00,
2013-01-31 12:54:00,11.8,5.1,29.88,WSW,252,2.0,2.0,74,0.00,,,0.00,Wunderground v.1.15,2013-01-31 18:54:00,
2013-01-31 12:59:00,11.4,5.0,29.88,WSW,252,1.0,2.0,75,0.00,,,0.00,Wunderground v.1.15,2013-01-31 18:59:00,
2013-01-31 13:04:00,11.2,5.1,29.89,WSW,252,2.0,2.0,76,0.00,,,0.00,Wunderground v.1.15,2013-01-31 19:04:00,
2013-01-31 13:09:00,10.8,4.4,29.89,WSW,252,2.0,3.0,75,0.00,,,0.00,Wunderground v.1.15,2013-01-31 19:09:00,
2013-01-31 13:18:00,10.4,4.0,29.89,WSW,252,2.0,2.0,75,0.00,,,0.00,Wunderground v.1.15,2013-01-31 19:18:00,
2013-01-31 13:23:00,10.5,3.8,29.89,WSW,252,2.0,3.0,74,0.00,,,0.00,Wunderground v.1.15,2013-01-31 19:23:00,
2013-01-31 13:28:00,10.5,4.1,29.89,WSW,252,2.0,2.0,75,0.00,,,0.00,Wunderground v.1.15,2013-01-31 19:28:00,
2013-01-31 13:33:00,10.3,3.9,29.90,WSW,252,2.0,2.0,75,0.00,,,0.00,Wunderground v.1.15,2013-01-31 19:33:00,
2013-01-31 13:38:00,10.3,3.9,29.89,WSW,252,2.0,2.0,75,0.00,,,0.00,Wunderground v.1.15,2013-01-31 19:38:00,
2013-01-31 13:43:00,10.6,4.5,29.90,WSW,252,2.0,2.0,76,0.00,,,0.00,Wunderground v.1.15,2013-01-31 19:43:00,
2013-01-31 13:48:00,10.9,4.8,29.90,WSW,252,2.0,2.0,76,0.00,,,0.00,Wunderground v.1.15,2013-01-31 19:48:00,
2013-01-31 13:58:00,10.5,4.1,29.90,WSW,252,2.0,2.0,75,0.00,,,0.00,Wunderground v.1.15,2013-01-31 19:58:00,
2013-01-31 14:08:00,10.3,4.5,29.91,WSW,252,2.0,2.0,77,0.00,,,0.00,Wunderground v.1.15,2013-01-31 20:08:00,
2013-01-31 14:13:00,10.3,4.5,29.91,WSW,252,2.0,2.0,77,0.00,,,0.00,Wunderground v.1.15,2013-01-31 20:13:00,
2013-01-31 14:18:00,10.1,4.0,29.91,WSW,252,2.0,2.0,76,0.00,,,0.00,Wunderground v.1.15,2013-01-31 20:18:00,
2013-01-31 14:23:00,10.2,4.7,29.91,WSW,252,1.0,2.0,78,0.00,,,0.00,Wunderground v.1.15,2013-01-31 20:23:00,
2013-01-31 14:28:00,10.0,4.2,29.92,WSW,252,1.0,3.0,77,0.00,,,0.00,Wunderground v.1.15,2013-01-31 20:28:00,
2013-01-31 14:33:00,9.6,3.8,29.91,WSW,252,2.0,3.0,77,0.00,,,0.00,Wunderground v.1.15,2013-01-31 20:33:00,
2013-01-31 14:43:00,9.7,3.7,29.92,WSW,252,2.0,2.0,76,0.00,,,0.00,Wunderground v.1.15,2013-01-31 20:43:00,
2013-01-31 14:49:00,9.6,3.3,29.92,WSW,252,3.0,4.0,75,0.00,,,0.00,Wunderground v.1.15,2013-01-31 20:49:00,
2013-01-31 14:59:00,9.2,3.2,29.93,WSW,252,2.0,3.0,76,0.00,,,0.00,Wunderground v.1.15,2013-01-31 20:59:00,
2013-01-31 15:04:00,9.3,3.5,29.93,WSW,252,2.0,3.0,77,0.00,,,0.00,Wunderground v.1.15,2013-01-31 21:04:00,
2013-01-31 15:09:00,9.2,3.4,29.93,WSW,252,2.0,2.0,77,0.00,,,0.00,Wunderground v.1.15,2013-01-31 21:09:00,
2013-01-31 15:14:00,9.3,3.5,29.94,WSW,252,1.0,3.0,77,0.00,,,0.00,Wunderground v.1.15,2013-01-31 21:14:00,
2013-01-31 15:19:00,9.2,3.4,29.94,WSW,252,1.0,2.0,77,0.00,,,0.00,Wunderground v.1.15,2013-01-31 21:19:00,
2013-01-31 15:29:00,9.0,3.3,29.94,WSW,252,1.0,1.0,77,0.00,,,0.00,Wunderground v.1.15,2013-01-31 21:29:00,
2013-01-31 15:34:00,8.8,3.1,29.95,WSW,252,2.0,2.0,77,0.00,,,0.00,Wunderground v.1.15,2013-01-31 21:34:00,
2013-01-31 15:39:00,8.6,2.9,29.95,WSW,252,2.0,2.0,77,0.00,,,0.00,Wunderground v.1.15,2013-01-31 21:39:00,
2013-01-31 15:49:00,8.3,2.9,29.96,WSW,252,1.0,2.0,78,0.00,,,0.00,Wunderground v.1.15,2013-01-31 21:49:00,
2013-01-31 15:54:00,8.2,2.8,29.96,WSW,252,1.0,3.0,78,0.00,,,0.00,Wunderground v.1.15,2013-01-31 21:54:00,
2013-01-31 15:59:00,8.1,2.7,29.97,WSW,252,1.0,1.0,78,0.00,,,0.00,Wunderground v.1.15,2013-01-31 21:59:00,
2013-01-31 16:09:00,7.8,2.1,29.97,WSW,252,1.0,1.0,77,0.00,,,0.00,Wunderground v.1.15,2013-01-31 22:09:00,
2013-01-31 16:14:00,7.7,2.0,29.97,WSW,252,1.0,1.0,77,0.00,,,0.00,Wunderground v.1.15,2013-01-31 22:14:00,
2013-01-31 16:19:00,7.4,1.7,29.98,WSW,252,1.0,1.0,77,0.00,,,0.00,Wunderground v.1.15,2013-01-31 22:19:00,
2013-01-31 16:24:00,7.2,1.2,29.98,WSW,252,1.0,2.0,76,0.00,,,0.00,Wunderground v.1.15,2013-01-31 22:24:00,
2013-01-31 16:29:00,6.9,0.9,29.98,WSW,252,2.0,2.0,76,0.00,,,0.00,Wunderground v.1.15,2013-01-31 22:29:00,
2013-01-31 16:34:00,6.7,0.7,29.99,WSW,252,2.0,2.0,76,0.00,,,0.00,Wunderground v.1.15,2013-01-31 22:34:00,
2013-01-31 16:39:00,6.4,0.7,29.99,WSW,252,1.0,1.0,77,0.00,,,0.00,Wunderground v.1.15,2013-01-31 22:39:00,
2013-01-31 16:49:00,6.0,0.3,29.99,WSW,252,1.0,1.0,77,0.00,,,0.00,Wunderground v.1.15,2013-01-31 22:49:00,
2013-01-31 16:59:00,5.6,0.2,30.00,WSW,252,1.0,1.0,78,0.00,,,0.00,Wunderground v.1.15,2013-01-31 22:59:00,
2013-01-31 17:09:00,5.3,-0.1,30.01,WSW,252,1.0,1.0,78,0.00,,,0.00,Wunderground v.1.15,2013-01-31 23:09:00,
2013-01-31 17:14:00,5.1,-0.3,30.01,WSW,252,1.0,2.0,78,0.00,,,0.00,Wunderground v.1.15,2013-01-31 23:14:00,
2013-01-31 17:19:00,5.0,-0.4,30.01,WSW,252,1.0,1.0,78,0.00,,,0.00,Wunderground v.1.15,2013-01-31 23:19:00,
2013-01-31 17:24:00,4.7,-0.7,30.01,WSW,252,1.0,1.0,78,0.00,,,0.00,Wunderground v.1.15,2013-01-31 23:24:00,
2013-01-31 17:29:00,4.6,-0.8,30.02,WSW,252,0.0,1.0,78,0.00,,,0.00,Wunderground v.1.15,2013-01-31 23:29:00,
2013-01-31 17:34:00,4.4,-0.7,30.02,WSW,252,0.0,1.0,79,0.00,,,0.00,Wunderground v.1.15,2013-01-31 23:34:00,
2013-01-31 17:44:00,4.1,-1.0,30.03,WSW,252,1.0,3.0,79,0.00,,,0.00,Wunderground v.1.15,2013-01-31 23:44:00,
2013-01-31 17:49:00,4.1,-1.0,30.03,WSW,252,1.0,1.0,79,0.00,,,0.00,Wunderground v.1.15,2013-01-31 23:49:00,
2013-01-31 17:54:00,4.0,-1.1,30.03,WSW,252,1.0,2.0,79,0.00,,,0.00,Wunderground v.1.15,2013-01-31 23:54:00,
2013-01-31 18:00:00,3.9,-0.9,30.04,WSW,252,1.0,1.0,80,0.00,,,0.00,Wunderground v.1.15,2013-02-01 00:00:00,
2013-01-31 18:05:00,3.8,-1.0,30.04,WSW,252,1.0,1.0,80,0.00,,,0.00,Wunderground v.1.15,2013-02-01 00:05:00,
2013-01-31 18:10:00,3.8,-1.0,30.04,WSW,252,1.0,1.0,80,0.00,,,0.00,Wunderground v.1.15,2013-02-01 00:10:00,
2013-01-31 18:20:00,3.6,-1.2,30.05,WSW,252,0.0,0.0,80,0.00,,,0.00,Wunderground v.1.15,2013-02-01 00:20:00,
2013-01-31 18:25:00,3.5,-1.3,30.05,WSW,252,1.0,1.0,80,0.00,,,0.00,Wunderground v.1.15,2013-02-01 00:25:00,
2013-01-31 18:30:00,3.5,-1.3,30.05,WSW,252,1.0,1.0,80,0.00,,,0.00,Wunderground v.1.15,2013-02-01 00:30:00,
2013-01-31 18:35:00,3.5,-1.3,30.06,WSW,252,1.0,1.0,80,0.00,,,0.00,Wunderground v.1.15,2013-02-01 00:35:00,
2013-01-31 18:40:00,3.5,-1.6,30.06,WSW,252,1.0,1.0,79,0.00,,,0.00,Wunderground v.1.15,2013-02-01 00:40:00,
2013-01-31 18:45:00,3.5,-1.6,30.07,WSW,252,1.0,1.0,79,0.00,,,0.00,Wunderground v.1.15,2013-02-01 00:45:00,
2013-01-31 18:50:00,3.5,-1.6,30.07,WSW,252,1.0,1.0,79,0.00,,,0.00,Wunderground v.1.15,2013-02-01 00:50:00,
2013-01-31 18:55:00,3.5,-1.6,30.07,WSW,252,1.0,1.0,79,0.00,,,0.00,Wunderground v.1.15,2013-02-01 00:55:00,
2013-01-31 19:05:00,3.3,-1.7,30.07,WSW,252,1.0,3.0,79,0.00,,,0.00,Wunderground v.1.15,2013-02-01 01:05:00,
2013-01-31 19:10:00,3.3,-1.7,30.08,WSW,252,1.0,1.0,79,0.00,,,0.00,Wunderground v.1.15,2013-02-01 01:10:00,
2013-01-31 19:15:00,3.2,-1.8,30.08,WSW,252,1.0,1.0,79,0.00,,,0.00,Wunderground v.1.15,2013-02-01 01:15:00,
2013-01-31 19:20:00,3.0,-2.0,30.08,WSW,252,1.0,1.0,79,0.00,,,0.00,Wunderground v.1.15,2013-02-01 01:20:00,
2013-01-31 19:30:00,2.8,-2.2,30.09,WSW,252,1.0,1.0,79,0.00,,,0.00,Wunderground v.1.15,2013-02-01 01:30:00,
2013-01-31 19:40:00,2.6,-2.4,30.09,WSW,252,1.0,1.0,79,0.00,,,0.00,Wunderground v.1.15,2013-02-01 01:40:00,
2013-01-31 19:50:00,2.4,-2.6,30.09,WSW,252,1.0,1.0,79,0.00,,,0.00,Wunderground v.1.15,2013-02-01 01:50:00,
2013-01-31 19:55:00,2.3,-2.7,30.09,WSW,252,1.0,1.0,79,0.00,,,0.00,Wunderground v.1.15,2013-02-01 01:55:00,
2013-01-31 20:00:00,2.2,-2.8,30.10,WSW,252,1.0,2.0,79,0.00,,,0.00,Wunderground v.1.15,2013-02-01 02:00:00,
2013-01-31 20:05:00,2.1,-2.9,30.10,WSW,252,1.0,2.0,79,0.00,,,0.00,Wunderground v.1.15,2013-02-01 02:05:00,
2013-01-31 20:10:00,2.0,-3.0,30.10,WSW,252,1.0,1.0,79,0.00,,,0.00,Wunderground v.1.15,2013-02-01 02:10:00,
2013-01-31 20:15:00,1.9,-3.1,30.11,WSW,252,1.0,1.0,79,0.00,,,0.00,Wunderground v.1.15,2013-02-01 02:15:00,
2013-01-31 20:20:00,1.8,-3.2,30.11,WSW,252,1.0,1.0,79,0.00,,,0.00,Wunderground v.1.15,2013-02-01 02:20:00,
2013-01-31 20:25:00,1.7,-3.3,30.11,WSW,252,1.0,2.0,79,0.00,,,0.00,Wunderground v.1.15,2013-02-01 02:25:00,
2013-01-31 20:35:00,1.5,-3.5,30.11,WSW,252,1.0,1.0,79,0.00,,,0.00,Wunderground v.1.15,2013-02-01 02:35:00,
2013-01-31 20:40:00,1.4,-3.6,30.11,WSW,252,1.0,2.0,79,0.00,,,0.00,Wunderground v.1.15,2013-02-01 02:40:00,
2013-01-31 20:45:00,1.3,-3.7,30.11,WSW,252,1.0,2.0,79,0.00,,,0.00,Wunderground v.1.15,2013-02-01 02:45:00,
2013-01-31 20:55:00,1.0,-4.0,30.12,WSW,252,1.0,1.0,79,0.00,,,0.00,Wunderground v.1.15,2013-02-01 02:55:00,
2013-01-31 21:00:00,0.9,-4.1,30.12,WSW,252,1.0,1.0,79,0.00,,,0.00,Wunderground v.1.15,2013-02-01 03:00:00,
2013-01-31 21:05:00,0.8,-4.2,30.13,WSW,252,0.0,1.0,79,0.00,,,0.00,Wunderground v.1.15,2013-02-01 03:05:00,
2013-01-31 21:10:00,0.6,-4.4,30.13,WSW,252,0.0,0.0,79,0.00,,,0.00,Wunderground v.1.15,2013-02-01 03:10:00,
2013-01-31 21:20:00,0.5,-4.5,30.13,WSW,252,1.0,1.0,79,0.00,,,0.00,Wunderground v.1.15,2013-02-01 03:20:00,
2013-01-31 21:25:00,0.4,-4.3,30.14,WSW,252,1.0,1.0,80,0.00,,,0.00,Wunderground v.1.15,2013-02-01 03:25:00,
2013-01-31 21:30:00,0.3,-4.4,30.14,WSW,252,0.0,1.0,80,0.00,,,0.00,Wunderground v.1.15,2013-02-01 03:30:00,
2013-01-31 21:35:00,0.2,-4.5,30.14,WSW,252,0.0,1.0,80,0.00,,,0.00,Wunderground v.1.15,2013-02-01 03:35:00,
2013-01-31 21:40:00,0.0,-4.7,30.14,WSW,252,0.0,0.0,80,0.00,,,0.00,Wunderground v.1.15,2013-02-01 03:40:00,
2013-01-31 21:45:00,0.0,-4.7,30.14,WSW,252,1.0,1.0,80,0.00,,,0.00,Wunderground v.1.15,2013-02-01 03:45:00,
2013-01-31 21:54:00,-0.2,-4.9,30.15,WSW,252,0.0,1.0,80,0.00,,,0.00,Wunderground v.1.15,2013-02-01 03:54:00,
2013-01-31 22:04:00,-0.3,-5.0,30.15,WSW,252,0.0,1.0,80,0.00,,,0.00,Wunderground v.1.15,2013-02-01 04:04:00,
2013-01-31 22:09:00,-0.5,-5.2,30.15,WSW,252,0.0,2.0,80,0.00,,,0.00,Wunderground v.1.15,2013-02-01 04:09:00,
2013-01-31 22:14:00,-0.5,-5.2,30.15,WSW,252,0.0,2.0,80,0.00,,,0.00,Wunderground v.1.15,2013-02-01 04:14:00,
2013-01-31 22:20:00,-0.6,-5.3,30.16,WSW,252,0.0,0.0,80,0.00,,,0.00,Wunderground v.1.15,2013-02-01 04:20:00,
2013-01-31 22:30:00,-0.8,-5.5,30.16,WSW,252,0.0,1.0,80,0.00,,,0.00,Wunderground v.1.15,2013-02-01 04:30:00,
2013-01-31 22:35:00,-0.9,-5.6,30.16,WSW,252,0.0,1.0,80,0.00,,,0.00,Wunderground v.1.15,2013-02-01 04:35:00,
2013-01-31 22:40:00,-1.0,-5.7,30.16,WSW,252,0.0,0.0,80,0.00,,,0.00,Wunderground v.1.15,2013-02-01 04:40:00,
2013-01-31 22:45:00,-1.1,-5.8,30.16,WSW,252,0.0,0.0,80,0.00,,,0.00,Wunderground v.1.15,2013-02-01 04:45:00,
2013-01-31 22:50:00,-1.1,-5.8,30.16,WSW,252,0.0,0.0,80,0.00,,,0.00,Wunderground v.1.15,2013-02-01 04:50:00,
2013-01-31 22:55:00,-1.1,-5.8,30.17,WSW,252,0.0,0.0,80,0.00,,,0.00,Wunderground v.1.15,2013-02-01 04:55:00,
2013-01-31 23:04:00,-1.2,-5.9,30.17,WSW,252,0.0,0.0,80,0.00,,,0.00,Wunderground v.1.15,2013-02-01 05:04:00,
2013-01-31 23:09:00,-1.3,-6.0,30.17,WSW,252,0.0,0.0,80,0.00,,,0.00,Wunderground v.1.15,2013-02-01 05:09:00,
2013-01-31 23:14:00,-1.3,-6.0,30.17,WSW,252,0.0,0.0,80,0.00,,,0.00,Wunderground v.1.15,2013-02-01 05:14:00,
2013-01-31 23:19:00,-1.4,-6.1,30.17,WSW,252,0.0,0.0,80,0.00,,,0.00,Wunderground v.1.15,2013-02-01 05:19:00,
2013-01-31 23:24:00,-1.4,-6.1,30.17,WSW,252,0.0,0.0,80,0.00,,,0.00,Wunderground v.1.15,2013-02-01 05:24:00,
2013-01-31 23:29:00,-1.6,-6.3,30.17,WSW,252,0.0,0.0,80,0.00,,,0.00,Wunderground v.1.15,2013-02-01 05:29:00,
2013-01-31 23:34:00,-1.6,-6.3,30.18,WSW,252,0.0,1.0,80,0.00,,,0.00,Wunderground v.1.15,2013-02-01 05:34:00,
2013-01-31 23:39:00,-1.6,-6.3,30.18,WSW,252,1.0,1.0,80,0.00,,,0.00,Wunderground v.1.15,2013-02-01 05:39:00,
2013-01-31 23:45:00,-1.7,-6.4,30.18,WSW,252,1.0,1.0,80,0.00,,,0.00,Wunderground v.1.15,2013-02-01 05:45:00,
2013-01-31 23:50:00,-1.7,-6.4,30.18,WSW,252,1.0,1.0,80,0.00,,,0.00,Wunderground v.1.15,2013-02-01 05:50:00,
2013-01-31 23:55:00,-1.9,-6.6,30.18,WSW,252,1.0,1.0,80,0.00,,,0.00,Wunderground v.1.15,2013-02-01 05:55:00,